Time;durP1;ratioP1;P1;durP2;ratioP2;P2;SDS_P1;SDS_P2;PMS_P1;PMS_P2;Temp;Humidity;BMP_temperature;BMP_pressure;BME280_temperature;BME280_humidity;BME280_pressure;Samples;Min_cycle;Max_cycle;Signal;HPM_P1;HPM_P2
2023/01/09 00:00:05;;;;;;;;;;;;;;;9.89;69.72;99286.13;5009469;28;19928;-74
2023/01/09 00:02:31;;;;;;;;;;;;;;;9.89;69.58;99296.91;5008347;28;19928;-73
2023/01/09 00:04:56;;;;;;;;;;;;;;;9.87;69.63;99289.06;5012188;28;20373;-73
2023/01/09 00:07:21;;;;;;;;;;;;;;;9.87;69.37;99294.47;5008101;28;19988;-74
2023/01/09 00:09:46;;;;;;;;;;;;;;;9.85;69.70;99283.16;5007851;28;19921;-75
2023/01/09 00:12:11;;;;;;;;;;;;;;;9.86;69.42;99292.06;5007584;28;19925;-75
2023/01/09 00:14:37;;;;;;;;;;;;;;;9.85;69.53;99299.34;5009005;28;20392;-73
2023/01/09 00:17:02;;;;;;;;;;;;;;;9.84;69.64;99305.00;5008860;28;20036;-75
2023/01/09 00:19:27;;;;;;;;;;;;;;;9.84;69.60;99299.63;5011602;28;19925;-74
2023/01/09 00:21:52;;;;;;;;;;;;;;;9.82;69.57;99299.88;5007538;28;19930;-74
2023/01/09 00:24:18;;;;;;;;;;;;;;;9.82;69.45;99302.56;5007140;28;19968;-74
2023/01/09 00:26:43;;;;;;;;;;;;;;;9.82;69.36;99307.16;5007982;28;19929;-74
2023/01/09 00:29:09;;;;;;;;;;;;;;;9.81;69.36;99306.34;5009721;28;19925;-74
2023/01/09 00:31:34;;;;;;;;;;;;;;;9.80;69.36;99304.72;5009200;28;19925;-75
2023/01/09 00:34:01;;;;;;;;;;;;;;;9.80;69.48;99301.22;5009672;28;19925;-75
2023/01/09 00:36:27;;;;;;;;;;;;;;;9.79;69.37;99308.53;5005777;28;20012;-75
2023/01/09 00:38:52;;;;;;;;;;;;;;;9.78;69.45;99312.31;5011055;28;20032;-74
2023/01/09 00:41:21;;;;;;;;;;;;;;;9.77;69.47;99307.97;5008794;28;19984;-74
2023/01/09 00:43:48;;;;;;;;;;;;;;;9.77;69.59;99310.66;5008323;28;19948;-74
2023/01/09 00:46:14;;;;;;;;;;;;;;;9.75;69.45;99310.97;5004984;28;19931;-74
2023/01/09 00:48:41;;;;;;;;;;;;;;;9.75;69.26;99305.56;5010581;28;20377;-73
2023/01/09 00:51:07;;;;;;;;;;;;;;;9.74;69.45;99312.03;5007418;28;19930;-73
2023/01/09 00:53:32;;;;;;;;;;;;;;;9.74;69.48;99311.22;5008622;28;20361;-74
2023/01/09 00:55:59;;;;;;;;;;;;;;;9.73;69.36;99318.50;5005513;28;19921;-74
2023/01/09 00:58:25;;;;;;;;;;;;;;;9.74;69.40;99313.91;5007138;28;19918;-73
2023/01/09 01:00:50;;;;;;;;;;;;;;;9.72;69.47;99314.19;5010004;28;19984;-74
2023/01/09 01:03:15;;;;;;;;;;;;;;;9.72;69.51;99310.69;5008439;28;20003;-74
2023/01/09 01:08:24;;;;;;;;;;;;;;;9.68;69.36;99321.22;5003906;28;19936;-73
2023/01/09 01:10:50;;;;;;;;;;;;;;;9.68;69.39;99323.09;5010222;28;19922;-75
2023/01/09 01:13:15;;;;;;;;;;;;;;;9.67;69.21;99319.59;5006389;28;19933;-74
2023/01/09 01:15:41;;;;;;;;;;;;;;;9.66;69.47;99320.66;5008741;28;19938;-75
2023/01/09 01:18:07;;;;;;;;;;;;;;;9.66;69.36;99319.88;5006140;28;19925;-76
2023/01/09 01:20:32;;;;;;;;;;;;;;;9.65;69.30;99315.53;5007292;28;19984;-75
2023/01/09 01:22:57;;;;;;;;;;;;;;;9.65;69.37;99323.63;5008271;28;19922;-75
2023/01/09 01:25:23;;;;;;;;;;;;;;;9.63;69.27;99320.41;5007242;28;19956;-76
2023/01/09 01:27:48;;;;;;;;;;;;;;;9.63;69.28;99326.63;5005518;28;20025;-74
2023/01/09 01:30:14;;;;;;;;;;;;;;;9.62;69.34;99330.38;5008632;28;19969;-74
2023/01/09 01:32:40;;;;;;;;;;;;;;;9.61;69.43;99327.97;5008650;28;19933;-75
2023/01/09 01:35:06;;;;;;;;;;;;;;;9.60;69.18;99332.56;5004412;28;19928;-74
2023/01/09 01:37:32;;;;;;;;;;;;;;;9.60;69.20;99331.72;5006057;28;19975;-75
2023/01/09 01:39:58;;;;;;;;;;;;;;;9.59;69.36;99330.91;5009219;28;19929;-75
2023/01/09 01:42:23;;;;;;;;;;;;;;;9.57;69.19;99327.69;5006110;28;20597;-74
2023/01/09 01:44:54;;;;;;;;;;;;;;;9.57;69.29;99319.59;5005805;28;20004;-74
2023/01/09 01:47:21;;;;;;;;;;;;;;;9.54;69.22;99318.25;5006933;28;20389;-73
2023/01/09 01:49:47;;;;;;;;;;;;;;;9.54;69.27;99314.75;5005968;28;19968;-73
2023/01/09 01:52:12;;;;;;;;;;;;;;;9.52;69.16;99325.81;5005811;28;19976;-75
2023/01/09 01:54:38;;;;;;;;;;;;;;;9.52;69.07;99327.69;5006561;28;20324;-76
2023/01/09 01:57:04;;;;;;;;;;;;;;;9.51;69.02;99323.38;5007547;28;19964;-76
2023/01/09 01:59:36;;;;;;;;;;;;;;;9.50;69.15;99330.66;5009202;28;19948;-76
2023/01/09 02:02:01;;;;;;;;;;;;;;;9.49;69.11;99333.63;5008071;28;20044;-74
2023/01/09 02:04:27;;;;;;;;;;;;;;;9.48;69.32;99329.31;5006818;28;20019;-74
2023/01/09 02:06:54;;;;;;;;;;;;;;;9.47;69.01;99341.16;5005991;28;19926;-75
2023/01/09 02:09:21;;;;;;;;;;;;;;;9.45;69.03;99341.44;5008944;28;19968;-74
2023/01/09 02:11:55;;;;;;;;;;;;;;;9.44;69.31;99334.41;5009020;28;19961;-75
2023/01/09 02:14:21;;;;;;;;;;;;;;;9.42;69.12;99339.25;5007371;28;19928;-73
2023/01/09 02:16:50;;;;;;;;;;;;;;;9.43;69.15;99337.41;5006861;28;19968;-74
2023/01/09 02:19:36;;;;;;;;;;;;;;;9.42;69.13;99330.38;5008513;28;20431;-75
2023/01/09 02:22:07;;;;;;;;;;;;;;;9.41;69.35;99334.16;5018441;28;19921;-74
2023/01/09 02:24:51;;;;;;;;;;;;;;;9.39;69.19;99341.72;5007847;28;19913;-74
2023/01/09 02:27:35;;;;;;;;;;;;;;;9.37;68.85;99339.25;5002976;28;19921;-74
2023/01/09 02:30:12;;;;;;;;;;;;;;;9.37;69.08;99333.88;5005021;28;19959;-75
2023/01/09 02:32:40;;;;;;;;;;;;;;;9.35;69.05;99330.66;5008429;28;19956;-75
2023/01/09 02:35:06;;;;;;;;;;;;;;;9.35;69.06;99327.97;5023399;28;20012;-74
2023/01/09 02:37:31;;;;;;;;;;;;;;;9.34;69.06;99329.03;5005045;28;20425;-74
2023/01/09 02:40:04;;;;;;;;;;;;;;;9.32;68.97;99326.63;5007086;28;19918;-73
2023/01/09 02:42:30;;;;;;;;;;;;;;;9.31;68.94;99318.78;5007999;28;19940;-74
2023/01/09 02:44:55;;;;;;;;;;;;;;;9.31;69.08;99324.19;5002802;28;19925;-75
2023/01/09 02:47:20;;;;;;;;;;;;;;;9.30;69.03;99327.97;5006122;28;19933;-74
2023/01/09 02:49:56;;;;;;;;;;;;;;;9.29;69.12;99321.75;5007745;28;19921;-74
2023/01/09 02:52:35;;;;;;;;;;;;;;;9.29;69.03;99315.56;5005990;28;20385;-74
2023/01/09 02:55:00;;;;;;;;;;;;;;;9.27;69.23;99317.72;5008217;28;19925;-74
2023/01/09 02:58:03;;;;;;;;;;;;;;;9.26;69.12;99319.59;5006058;28;21672;-74
2023/01/09 03:00:38;;;;;;;;;;;;;;;9.25;69.13;99315.31;4983799;28;19921;-74
2023/01/09 03:03:08;;;;;;;;;;;;;;;9.24;69.08;99316.34;5000356;28;20393;-74
2023/01/09 03:05:37;;;;;;;;;;;;;;;9.24;69.25;99318.25;5004760;28;19936;-75
2023/01/09 03:08:17;;;;;;;;;;;;;;;9.22;68.93;99318.53;5006737;28;19944;-75
2023/01/09 03:10:58;;;;;;;;;;;;;;;9.22;69.03;99321.22;5003932;28;20389;-75
2023/01/09 03:13:24;;;;;;;;;;;;;;;9.21;69.02;99318.78;5003245;28;19957;-74
2023/01/09 03:15:52;;;;;;;;;;;;;;;9.19;69.12;99313.66;5007353;28;19929;-74
2023/01/09 03:18:20;;;;;;;;;;;;;;;9.19;68.96;99310.16;5003660;28;19921;-75
2023/01/09 03:20:46;;;;;;;;;;;;;;;9.18;69.03;99313.94;5006387;28;19921;-74
2023/01/09 03:23:11;;;;;;;;;;;;;;;9.16;69.00;99316.09;5007750;28;20286;-74
2023/01/09 03:25:36;;;;;;;;;;;;;;;9.16;68.99;99310.72;5007775;28;19971;-75
2023/01/09 03:28:03;;;;;;;;;;;;;;;9.15;69.09;99309.06;5004169;28;20589;-74
2023/01/09 03:30:30;;;;;;;;;;;;;;;9.13;68.79;99303.97;5004945;28;19921;-74
2023/01/09 03:32:56;;;;;;;;;;;;;;;9.13;69.07;99309.34;5003236;28;19922;-74
2023/01/09 03:35:21;;;;;;;;;;;;;;;9.11;69.21;99308.81;5006283;28;19921;-74
2023/01/09 03:37:47;;;;;;;;;;;;;;;9.11;68.91;99311.50;5005156;28;19967;-74
2023/01/09 03:40:12;;;;;;;;;;;;;;;9.09;68.79;99302.88;5004985;28;19929;-73
2023/01/09 03:42:37;;;;;;;;;;;;;;;9.08;68.92;99307.47;5004065;28;19947;-74
2023/01/09 03:45:03;;;;;;;;;;;;;;;9.07;68.89;99307.72;5008609;28;19925;-74
2023/01/09 03:47:29;;;;;;;;;;;;;;;9.05;68.90;99305.31;5007187;28;19928;-75
2023/01/09 03:49:54;;;;;;;;;;;;;;;9.05;68.95;99309.91;5002826;28;19922;-74
2023/01/09 03:52:19;;;;;;;;;;;;;;;9.04;68.85;99314.44;5009695;28;19925;-75
2023/01/09 03:54:45;;;;;;;;;;;;;;;9.03;68.95;99322.81;5009455;28;19934;-75
2023/01/09 03:57:10;;;;;;;;;;;;;;;9.03;68.97;99322.81;5009563;28;19930;-75
2023/01/09 03:59:35;;;;;;;;;;;;;;;9.01;68.87;99319.56;5009533;28;20032;-74
2023/01/09 04:02:00;;;;;;;;;;;;;;;9.00;68.94;99321.47;5008529;28;19925;-74
2023/01/09 04:04:26;;;;;;;;;;;;;;;8.99;69.08;99325.22;5006998;28;19928;-75
2023/01/09 04:06:51;;;;;;;;;;;;;;;8.98;69.16;99318.22;5007447;28;20011;-74
2023/01/09 04:09:16;;;;;;;;;;;;;;;8.97;68.81;99327.41;5010251;28;20293;-75
2023/01/09 04:11:41;;;;;;;;;;;;;;;8.96;69.00;99316.88;5009213;28;19939;-75
2023/01/09 04:14:07;;;;;;;;;;;;;;;8.95;68.99;99321.47;5009397;28;19953;-74
2023/01/09 04:16:32;;;;;;;;;;;;;;;8.95;69.02;99321.47;5010689;28;19940;-75
2023/01/09 04:18:57;;;;;;;;;;;;;;;8.94;68.96;99311.75;5009524;28;19926;-74
2023/01/09 04:21:22;;;;;;;;;;;;;;;8.93;68.78;99310.13;5004120;28;20046;-74
2023/01/09 04:23:47;;;;;;;;;;;;;;;8.93;68.73;99314.72;5009155;28;19929;-75
2023/01/09 04:26:13;;;;;;;;;;;;;;;8.91;68.88;99314.97;5008884;28;19921;-74
2023/01/09 04:28:38;;;;;;;;;;;;;;;8.92;68.89;99302.31;5008913;28;20015;-75
2023/01/09 04:31:04;;;;;;;;;;;;;;;8.91;68.79;99306.09;5009039;28;19929;-74
2023/01/09 04:33:29;;;;;;;;;;;;;;;8.89;68.86;99306.34;5011035;28;19957;-74
2023/01/09 04:35:54;;;;;;;;;;;;;;;8.88;68.98;99308.25;5009204;28;19929;-74
2023/01/09 04:38:20;;;;;;;;;;;;;;;8.87;68.82;99308.53;5006990;28;20298;-74
2023/01/09 04:40:48;;;;;;;;;;;;;;;8.86;68.80;99310.38;5006258;28;19921;-74
2023/01/09 04:43:13;;;;;;;;;;;;;;;8.86;69.02;99313.06;5007258;28;19926;-74
2023/01/09 04:45:39;;;;;;;;;;;;;;;8.85;68.99;99310.66;5007142;28;19953;-74
2023/01/09 04:48:04;;;;;;;;;;;;;;;8.83;68.87;99302.84;5009750;28;20040;-74
2023/01/09 04:50:29;;;;;;;;;;;;;;;8.82;69.00;99301.25;5008438;28;20004;-74
2023/01/09 04:52:55;;;;;;;;;;;;;;;8.82;68.92;99300.41;5000559;28;19984;-73
2023/01/09 04:55:21;;;;;;;;;;;;;;;8.82;68.97;99289.63;5006597;28;19932;-75
2023/01/09 04:57:46;;;;;;;;;;;;;;;8.81;69.07;99296.13;5008752;28;19922;-75
2023/01/09 05:00:12;;;;;;;;;;;;;;;8.80;68.93;99289.94;5007941;28;19928;-75
2023/01/09 05:02:37;;;;;;;;;;;;;;;8.80;68.78;99292.63;5003889;28;19932;-74
2023/01/09 05:05:03;;;;;;;;;;;;;;;8.80;68.94;99291.81;5007146;28;20325;-74
2023/01/09 05:07:29;;;;;;;;;;;;;;;8.79;68.87;99282.09;5007067;28;20302;-76
2023/01/09 05:09:54;;;;;;;;;;;;;;;8.78;69.12;99284.00;5004237;28;19925;-75
2023/01/09 05:12:19;;;;;;;;;;;;;;;8.78;69.15;99285.88;5008378;28;20362;-75
2023/01/09 05:14:44;;;;;;;;;;;;;;;8.78;68.88;99285.88;5008124;28;19933;-73
2023/01/09 05:17:10;;;;;;;;;;;;;;;8.76;68.92;99283.44;5008636;28;19926;-75
2023/01/09 05:19:35;;;;;;;;;;;;;;;8.76;69.14;99269.97;5005822;28;19925;-75
2023/01/09 05:22:00;;;;;;;;;;;;;;;8.75;69.14;99281.84;5007107;28;20290;-74
2023/01/09 05:24:25;;;;;;;;;;;;;;;8.76;68.90;99285.34;5009994;28;19933;-75
2023/01/09 05:26:51;;;;;;;;;;;;;;;8.76;69.00;99277.25;5004916;28;19929;-74
2023/01/09 05:29:16;;;;;;;;;;;;;;;8.74;69.13;99271.31;5008731;28;20365;-75
2023/01/09 05:31:41;;;;;;;;;;;;;;;8.74;69.06;99280.19;5008012;28;19925;-74
2023/01/09 05:34:06;;;;;;;;;;;;;;;8.74;69.05;99271.31;5007151;28;20012;-74
2023/01/09 05:36:31;;;;;;;;;;;;;;;8.73;69.07;99273.22;5009230;28;19964;-75
2023/01/09 05:38:57;;;;;;;;;;;;;;;8.73;69.20;99283.19;5008974;28;20396;-76
2023/01/09 05:41:23;;;;;;;;;;;;;;;8.73;69.08;99281.28;5006252;28;19944;-74
2023/01/09 05:43:48;;;;;;;;;;;;;;;8.72;68.93;99284.22;5005959;28;20036;-75
2023/01/09 05:46:14;;;;;;;;;;;;;;;8.71;69.26;99282.63;5007625;28;20883;-74
2023/01/09 05:48:39;;;;;;;;;;;;;;;8.71;69.20;99280.75;5005683;28;19933;-75
2023/01/09 05:51:04;;;;;;;;;;;;;;;8.70;69.19;99286.41;5007970;28;19929;-73
2023/01/09 05:53:29;;;;;;;;;;;;;;;8.70;69.15;99283.72;5008142;28;19925;-74
2023/01/09 05:55:55;;;;;;;;;;;;;;;8.69;69.31;99269.44;5002428;28;20369;-73
2023/01/09 05:58:20;;;;;;;;;;;;;;;8.70;69.15;99291.78;5008516;28;19940;-74
2023/01/09 06:00:45;;;;;;;;;;;;;;;8.68;69.21;99269.72;5005675;28;19925;-74
2023/01/09 06:03:11;;;;;;;;;;;;;;;8.69;69.24;99279.38;5004615;28;19931;-74
2023/01/09 06:05:36;;;;;;;;;;;;;;;8.68;69.14;99275.09;5005322;28;19926;-75
2023/01/09 06:08:01;;;;;;;;;;;;;;;8.68;69.34;99273.22;5006079;28;19960;-74
2023/01/09 06:10:26;;;;;;;;;;;;;;;8.68;69.37;99267.81;5009246;28;19952;-74
2023/01/09 06:12:53;;;;;;;;;;;;;;;8.68;69.12;99264.31;5008747;28;19948;-74
2023/01/09 06:15:19;;;;;;;;;;;;;;;8.69;69.26;99276.69;5007551;28;20412;-74
2023/01/09 06:17:45;;;;;;;;;;;;;;;8.68;69.33;99272.41;5005580;28;19929;-74
2023/01/09 06:20:10;;;;;;;;;;;;;;;8.66;69.33;99280.72;5007346;28;19926;-73
2023/01/09 06:22:36;;;;;;;;;;;;;;;8.64;69.41;99264.88;5004569;28;19937;-75
2023/01/09 06:25:01;;;;;;;;;;;;;;;8.64;69.42;99280.19;5006324;28;20357;-74
2023/01/09 06:27:26;;;;;;;;;;;;;;;8.63;69.34;99282.06;5006143;28;19932;-74
2023/01/09 06:29:51;;;;;;;;;;;;;;;8.63;69.19;99284.75;5007061;28;20324;-74
2023/01/09 06:32:17;;;;;;;;;;;;;;;8.63;69.25;99287.47;5004574;28;20441;-74
2023/01/09 06:34:42;;;;;;;;;;;;;;;8.63;69.44;99300.13;5006198;28;19939;-71
2023/01/09 06:37:07;;;;;;;;;;;;;;;8.61;69.32;99300.38;5003933;28;19921;-72
2023/01/09 06:39:32;;;;;;;;;;;;;;;8.60;69.68;99293.38;5005967;28;19961;-74
2023/01/09 06:41:58;;;;;;;;;;;;;;;8.60;69.49;99293.38;5004224;28;19975;-73
2023/01/09 06:44:23;;;;;;;;;;;;;;;8.60;69.68;99289.88;5003998;28;20279;-74
2023/01/09 06:46:48;;;;;;;;;;;;;;;8.62;69.50;99293.13;5007652;28;19940;-73
2023/01/09 06:49:14;;;;;;;;;;;;;;;8.60;69.41;99293.38;5002968;28;19933;-73
2023/01/09 06:51:39;;;;;;;;;;;;;;;8.61;69.55;99299.56;5019188;28;20008;-75
2023/01/09 06:54:04;;;;;;;;;;;;;;;8.60;69.44;99306.84;5006366;28;20354;-73
2023/01/09 06:56:29;;;;;;;;;;;;;;;8.60;69.67;99314.91;5003941;28;19922;-74
2023/01/09 06:58:55;;;;;;;;;;;;;;;8.59;69.68;99305.22;5004959;28;20382;-73
2023/01/09 07:01:20;;;;;;;;;;;;;;;8.59;69.91;99329.44;5007416;28;19961;-74
2023/01/09 07:03:45;;;;;;;;;;;;;;;8.58;69.69;99327.00;5000447;28;19933;-73
2023/01/09 07:06:11;;;;;;;;;;;;;;;8.59;69.74;99328.63;5002749;28;19937;-74
2023/01/09 07:08:36;;;;;;;;;;;;;;;8.57;69.79;99341.56;5004056;28;20360;-74
2023/01/09 07:11:01;;;;;;;;;;;;;;;8.58;69.59;99356.63;5001491;28;19929;-73
2023/01/09 07:13:26;;;;;;;;;;;;;;;8.57;69.70;99355.81;5008330;28;19930;-73
2023/01/09 07:15:52;;;;;;;;;;;;;;;8.57;69.94;99350.44;5002965;28;20009;-75
2023/01/09 07:18:17;;;;;;;;;;;;;;;8.56;69.91;99364.94;5004364;28;19925;-74
2023/01/09 07:20:43;;;;;;;;;;;;;;;8.58;69.81;99362.81;5005376;28;19926;-75
2023/01/09 07:23:14;;;;;;;;;;;;;;;8.57;69.94;99369.28;5004422;28;19929;-75
2023/01/09 07:25:42;;;;;;;;;;;;;;;8.56;69.77;99375.72;5003953;28;19929;-77
2023/01/09 07:28:07;;;;;;;;;;;;;;;8.56;69.84;99378.41;5003331;28;19981;-70
2023/01/09 07:30:32;;;;;;;;;;;;;;;8.58;70.10;99378.94;5010961;28;19925;-75
2023/01/09 07:32:58;;;;;;;;;;;;;;;8.58;70.10;99389.72;4990681;28;20032;-76
2023/01/09 07:35:23;;;;;;;;;;;;;;;8.58;70.02;99392.41;5006137;28;19924;-77
2023/01/09 07:37:49;;;;;;;;;;;;;;;8.59;70.15;99398.59;5000826;28;19925;-76
2023/01/09 07:40:14;;;;;;;;;;;;;;;8.60;69.98;99398.34;5009233;28;19930;-77
2023/01/09 07:42:39;;;;;;;;;;;;;;;8.59;70.23;99404.81;5008179;28;19957;-76
2023/01/09 07:45:05;;;;;;;;;;;;;;;8.60;69.91;99408.31;5011587;28;20325;-76
2023/01/09 07:47:30;;;;;;;;;;;;;;;8.61;69.92;99408.03;5005548;28;19925;-76
2023/01/09 07:49:55;;;;;;;;;;;;;;;8.59;70.00;99414.75;4999972;28;19941;-76
2023/01/09 07:52:21;;;;;;;;;;;;;;;8.60;70.09;99419.88;5009341;28;20654;-76
2023/01/09 07:54:46;;;;;;;;;;;;;;;8.60;70.16;99419.06;5010233;28;19982;-76
2023/01/09 07:57:11;;;;;;;;;;;;;;;8.60;70.20;99422.56;5010793;28;19925;-75
2023/01/09 07:59:36;;;;;;;;;;;;;;;8.60;70.19;99427.16;5007186;28;20333;-75
2023/01/09 08:02:04;;;;;;;;;;;;;;;8.59;70.18;99429.03;5007715;28;20372;-76
2023/01/09 08:04:29;;;;;;;;;;;;;;;8.60;70.24;99424.47;5010022;28;19926;-76
2023/01/09 08:06:55;;;;;;;;;;;;;;;8.61;69.98;99434.13;5010657;28;20035;-75
2023/01/09 08:09:21;;;;;;;;;;;;;;;8.62;70.36;99443.84;5004803;28;19929;-75
2023/01/09 08:11:46;;;;;;;;;;;;;;;8.61;70.12;99448.41;5023485;28;19932;-76
2023/01/09 08:14:11;;;;;;;;;;;;;;;8.62;70.26;99462.69;5010019;28;19929;-69
2023/01/09 08:16:36;;;;;;;;;;;;;;;8.61;70.42;99461.06;5006530;28;19952;-75
2023/01/09 08:19:02;;;;;;;;;;;;;;;8.62;70.58;99462.69;5008132;28;20496;-75
2023/01/09 08:21:27;;;;;;;;;;;;;;;8.61;70.51;99461.06;5006875;28;19929;-75
2023/01/09 08:23:52;;;;;;;;;;;;;;;8.62;70.61;99468.09;5003373;28;19932;-74
2023/01/09 08:26:18;;;;;;;;;;;;;;;8.63;70.45;99475.06;5007218;28;19948;-75
2023/01/09 08:28:44;;;;;;;;;;;;;;;8.63;70.40;99488.53;5004817;28;20028;-75
2023/01/09 08:31:09;;;;;;;;;;;;;;;8.63;70.42;99486.66;5007974;28;20663;-75
2023/01/09 08:33:34;;;;;;;;;;;;;;;8.64;70.63;99495.53;5006965;28;19956;-75
2023/01/09 08:36:00;;;;;;;;;;;;;;;8.64;70.38;99504.44;5004693;28;19921;-75
2023/01/09 08:38:25;;;;;;;;;;;;;;;8.64;70.52;99509.81;5007161;28;19921;-75
2023/01/09 08:40:50;;;;;;;;;;;;;;;8.64;70.36;99507.13;5007213;28;19921;-74
2023/01/09 08:48:25;;;;;;;;;;;;;;;8.64;70.75;99509.81;5006500;28;19926;-74
2023/01/09 08:50:52;;;;;;;;;;;;;;;8.63;70.33;99516.25;5004381;28;19925;-74
2023/01/09 08:53:18;;;;;;;;;;;;;;;8.64;70.67;99530.53;5004902;28;20017;-75
2023/01/09 08:55:43;;;;;;;;;;;;;;;8.65;70.63;99527.56;5008709;28;20071;-74
2023/01/09 08:58:08;;;;;;;;;;;;;;;8.64;70.69;99531.34;5005106;28;20377;-75
2023/01/09 09:00:33;;;;;;;;;;;;;;;8.66;70.47;99539.16;5005037;28;20456;-74
2023/01/09 09:02:59;;;;;;;;;;;;;;;8.65;70.70;99532.16;5005041;28;20551;-74
2023/01/09 09:05:25;;;;;;;;;;;;;;;8.64;70.69;99550.19;5003462;28;19925;-75
2023/01/09 09:07:53;;;;;;;;;;;;;;;8.63;70.49;99553.13;5006979;28;19922;-75
2023/01/09 09:10:18;;;;;;;;;;;;;;;8.64;70.87;99560.97;5006810;28;20366;-74
2023/01/09 09:12:47;;;;;;;;;;;;;;;8.65;70.62;99565.25;5005180;28;19933;-75
2023/01/09 09:15:12;;;;;;;;;;;;;;;8.64;70.55;99571.72;5000432;28;19925;-75
2023/01/09 09:17:40;;;;;;;;;;;;;;;8.65;70.55;99576.03;5007642;28;19970;-74
2023/01/09 09:20:07;;;;;;;;;;;;;;;8.66;70.71;99585.72;5005346;28;19932;-75
2023/01/09 09:22:32;;;;;;;;;;;;;;;8.67;70.52;99581.16;5003766;28;19929;-74
2023/01/09 09:24:57;;;;;;;;;;;;;;;8.68;70.64;99573.91;5008444;28;20374;-75
2023/01/09 09:27:23;;;;;;;;;;;;;;;8.68;70.63;99588.16;5004764;28;19917;-75
2023/01/09 09:29:48;;;;;;;;;;;;;;;8.68;70.67;99593.56;5004720;28;20068;-74
2023/01/09 09:32:13;;;;;;;;;;;;;;;8.69;70.78;99605.13;5006622;28;19985;-74
2023/01/09 09:34:39;;;;;;;;;;;;;;;8.68;70.84;99596.25;5007666;28;20394;-75
2023/01/09 09:37:04;;;;;;;;;;;;;;;8.70;70.45;99598.69;5004128;28;19993;-74
2023/01/09 09:39:29;;;;;;;;;;;;;;;8.70;70.64;99615.66;5003692;28;20454;-75
2023/01/09 09:44:47;;;;;;;;;;;;;;;8.69;70.68;99632.03;5007067;28;20285;-75
2023/01/09 09:47:18;;;;;;;;;;;;;;;8.69;70.80;99640.13;5003000;28;20393;-75
2023/01/09 09:50:01;;;;;;;;;;;;;;;8.67;70.82;99640.41;5000096;28;19930;-75
2023/01/09 09:52:38;;;;;;;;;;;;;;;8.66;70.70;99650.34;5002661;28;20487;-75
2023/01/09 09:55:11;;;;;;;;;;;;;;;8.69;70.79;99667.84;5003219;28;19925;-75
2023/01/09 09:57:36;;;;;;;;;;;;;;;8.69;70.64;99665.16;5005787;28;19983;-75
2023/01/09 10:00:03;;;;;;;;;;;;;;;8.71;70.71;99670.28;5004162;28;19925;-75
2023/01/09 10:02:31;;;;;;;;;;;;;;;8.69;70.90;99681.31;5006596;28;19960;-74
2023/01/09 10:05:04;;;;;;;;;;;;;;;8.69;70.72;99673.22;5007897;28;19918;-76
2023/01/09 10:07:36;;;;;;;;;;;;;;;8.71;70.69;99691.84;5003404;28;19925;-74
2023/01/09 10:10:04;;;;;;;;;;;;;;;8.71;70.57;99689.94;5001402;28;19921;-75
2023/01/09 10:12:36;;;;;;;;;;;;;;;8.72;70.62;99696.97;5002455;28;19922;-76
2023/01/09 10:15:05;;;;;;;;;;;;;;;8.72;70.73;99698.81;5004211;28;19964;-75
2023/01/09 10:17:37;;;;;;;;;;;;;;;8.72;70.54;99694.28;5006309;28;20706;-75
2023/01/09 10:20:20;;;;;;;;;;;;;;;8.74;70.58;99708.28;5005388;28;20016;-74
2023/01/09 10:22:52;;;;;;;;;;;;;;;8.75;70.54;99701.03;5006208;28;20401;-75
2023/01/09 10:25:17;;;;;;;;;;;;;;;8.74;70.50;99699.41;4998846;28;20293;-74
2023/01/09 10:27:48;;;;;;;;;;;;;;;8.74;70.76;99708.28;5001392;28;19925;-75
2023/01/09 10:30:16;;;;;;;;;;;;;;;8.74;70.71;99707.47;5001561;28;19925;-74
2023/01/09 10:32:48;;;;;;;;;;;;;;;8.74;70.70;99707.47;5003969;28;19925;-75
2023/01/09 10:35:13;;;;;;;;;;;;;;;8.74;70.90;99704.78;5003531;28;20383;-75
2023/01/09 10:37:41;;;;;;;;;;;;;;;8.75;70.68;99709.91;5005425;28;19922;-74
2023/01/09 10:40:21;;;;;;;;;;;;;;;8.75;70.80;99720.69;5003490;28;19922;-76
2023/01/09 10:43:02;;;;;;;;;;;;;;;8.76;70.76;99726.88;5007424;28;20016;-75
2023/01/09 10:45:40;;;;;;;;;;;;;;;8.76;70.80;99724.19;5004968;28;19953;-75
2023/01/09 10:48:13;;;;;;;;;;;;;;;8.76;70.82;99729.56;5005350;28;19979;-75
2023/01/09 10:50:44;;;;;;;;;;;;;;;8.76;70.83;99729.56;5008808;28;19975;-75
2023/01/09 10:53:33;;;;;;;;;;;;;;;8.76;70.69;99732.25;5003116;28;19929;-76
2023/01/09 10:56:03;;;;;;;;;;;;;;;8.77;70.54;99747.34;5009065;28;19924;-76
2023/01/09 10:58:29;;;;;;;;;;;;;;;8.77;70.58;99750.88;5001834;28;19921;-75
2023/01/09 11:00:55;;;;;;;;;;;;;;;8.78;70.69;99746.28;5003525;28;20404;-75
2023/01/09 11:03:22;;;;;;;;;;;;;;;8.78;70.73;99752.47;5008643;28;19976;-75
2023/01/09 11:05:49;;;;;;;;;;;;;;;8.80;70.80;99749.53;5011038;28;19918;-76
2023/01/09 11:08:34;;;;;;;;;;;;;;;8.80;70.70;99749.53;5006903;28;20401;-75
2023/01/09 11:11:01;;;;;;;;;;;;;;;8.80;70.76;99757.63;5010071;28;20441;-77
2023/01/09 11:13:31;;;;;;;;;;;;;;;8.81;70.61;99765.44;5009311;28;19972;-76
2023/01/09 11:15:59;;;;;;;;;;;;;;;8.82;70.53;99764.38;5012373;28;19921;-76
2023/01/09 11:18:25;;;;;;;;;;;;;;;8.83;70.60;99766.00;5007364;28;21399;-75
2023/01/09 11:20:50;;;;;;;;;;;;;;;8.83;70.45;99765.19;5012187;28;19917;-75
2023/01/09 11:23:26;;;;;;;;;;;;;;;8.85;70.53;99771.13;5010230;28;20016;-75
2023/01/09 11:25:52;;;;;;;;;;;;;;;8.84;70.71;99769.50;5004561;28;19933;-69
2023/01/09 11:28:20;;;;;;;;;;;;;;;8.85;70.89;99777.31;5006895;28;20346;-75
2023/01/09 11:30:53;;;;;;;;;;;;;;;8.86;70.63;99775.44;5011777;28;19933;-75
2023/01/09 11:33:23;;;;;;;;;;;;;;;8.88;70.71;99782.19;5011232;28;19929;-75
2023/01/09 11:35:53;;;;;;;;;;;;;;;8.88;70.54;99789.47;5008890;28;19976;-76
2023/01/09 11:38:19;;;;;;;;;;;;;;;8.88;70.67;99784.88;5010810;28;19918;-75
2023/01/09 11:40:52;;;;;;;;;;;;;;;8.89;70.80;99785.69;5008680;28;19972;-74
2023/01/09 11:43:19;;;;;;;;;;;;;;;8.91;70.55;99794.34;5004855;28;19921;-75
2023/01/09 11:45:48;;;;;;;;;;;;;;;8.90;70.87;99792.72;5007234;28;19924;-76
2023/01/09 11:48:25;;;;;;;;;;;;;;;8.90;70.76;99789.22;5007787;28;19929;-75
2023/01/09 11:50:55;;;;;;;;;;;;;;;8.90;70.71;99790.03;5021659;28;19947;-75
2023/01/09 11:53:20;;;;;;;;;;;;;;;8.89;70.95;99791.09;5007602;28;19921;-74
2023/01/09 11:55:47;;;;;;;;;;;;;;;8.90;70.84;99800.81;5002087;28;20403;-76
2023/01/09 11:58:16;;;;;;;;;;;;;;;8.91;70.90;99805.13;5006415;28;19934;-75
2023/01/09 12:00:52;;;;;;;;;;;;;;;8.94;70.75;99807.28;5010040;28;19928;-75
2023/01/09 12:03:21;;;;;;;;;;;;;;;8.93;71.01;99807.56;5005562;28;19930;-76
2023/01/09 12:06:04;;;;;;;;;;;;;;;8.93;70.98;99802.97;5003680;28;20039;-75
2023/01/09 12:08:52;;;;;;;;;;;;;;;8.93;70.72;99802.97;5005455;28;20017;-75
2023/01/09 12:11:17;;;;;;;;;;;;;;;8.93;70.89;99802.97;5007951;28;19922;-75
2023/01/09 12:14:03;;;;;;;;;;;;;;;8.94;70.74;99807.28;5004954;28;19929;-75
2023/01/09 12:16:34;;;;;;;;;;;;;;;8.95;70.93;99810.81;4993798;28;19924;-76
2023/01/09 12:19:02;;;;;;;;;;;;;;;8.95;70.85;99811.63;5006190;28;19925;-76
2023/01/09 12:21:36;;;;;;;;;;;;;;;8.96;70.84;99809.75;5007833;28;20246;-76
2023/01/09 12:24:29;;;;;;;;;;;;;;;8.96;70.95;99813.25;5005423;28;20008;-75
2023/01/09 12:26:57;;;;;;;;;;;;;;;8.96;71.10;99813.25;5024120;28;19928;-76
2023/01/09 12:29:51;;;;;;;;;;;;;;;8.97;71.12;99812.19;5005505;28;19917;-75
2023/01/09 12:32:30;;;;;;;;;;;;;;;8.98;70.75;99819.19;5008234;28;19922;-74
2023/01/09 12:35:14;;;;;;;;;;;;;;;8.98;71.00;99815.69;5004077;28;19930;-76
2023/01/09 12:37:39;;;;;;;;;;;;;;;8.99;70.91;99823.50;5005992;28;20022;-75
2023/01/09 12:40:08;;;;;;;;;;;;;;;9.01;71.08;99828.66;5005999;28;20010;-76
2023/01/09 12:42:45;;;;;;;;;;;;;;;9.01;71.15;99821.38;5005902;28;19965;-75
2023/01/09 12:45:13;;;;;;;;;;;;;;;9.01;70.94;99820.56;5007007;28;20004;-75
2023/01/09 12:47:44;;;;;;;;;;;;;;;9.01;71.11;99828.66;5003540;28;19929;-75
2023/01/09 12:50:09;;;;;;;;;;;;;;;9.02;71.17;99832.94;5003279;28;20374;-75
2023/01/09 12:52:38;;;;;;;;;;;;;;;9.04;70.99;99838.91;5007258;28;19922;-75
2023/01/09 12:55:26;;;;;;;;;;;;;;;9.04;71.09;99845.09;5005713;28;19932;-75
2023/01/09 12:57:56;;;;;;;;;;;;;;;9.05;71.13;99833.28;5007307;28;19921;-75
2023/01/09 13:00:40;;;;;;;;;;;;;;;9.04;71.11;99845.09;5003923;28;19944;-75
2023/01/09 13:03:05;;;;;;;;;;;;;;;9.05;70.84;99844.06;5004273;28;19926;-75
2023/01/09 13:05:36;;;;;;;;;;;;;;;9.07;71.04;99850.00;5006990;28;19913;-75
2023/01/09 13:08:07;;;;;;;;;;;;;;;9.07;71.14;99854.56;5004351;28;19922;-76
2023/01/09 13:10:37;;;;;;;;;;;;;;;9.06;70.96;99853.75;5005074;28;19917;-75